• Join FlightAware (Why Join?)
  • Login
  • US Flag 
08:19AM EDT


 

Airport Tracker/Info


-or-


 

Live Flight TrackerFlight Track Log ✈ UAL5911 ✈ 18-Apr-2013 ✈ KORD - KPIA

Flight Track Log - Related Links

Times and Time Zones

All times are in EDT time to prevent confusion due to time zone crossing. See the UAL5911 flight status page for this flight to view local times or setup timezone preferences in your user account.

Time Position Orientation Groundspeed Altitude Reporting Facility
EDT Latitude Longitude Course Direction KTS MPH feet Rate Location/Type
03:51PM 41.9500 -87.9833 242° Southwest 202 232 3,700  Level Chicago TRACON
03:52PM 41.9167 -88.0667 242° Southwest 232 267 5,000 1,200 Climbing Chicago TRACON
03:53PM 41.9167 -88.1667 270° West 234 269 6,200 1,800 Climbing Chicago TRACON
03:54PM 41.9228 -88.2425 276° West 237 273 9,000 1,740 Climbing Chicago Center
03:55PM 41.9250 -88.3475 272° West 235 270 10,100 480 Climbing Chicago Center
03:56PM 41.9278 -88.4392 272° West 243 280 10,100 -60 Level Chicago Center
03:57PM 41.9319 -88.5356 273° West 258 297 10,000 -60 Descending Chicago Center
03:58PM 41.9364 -88.6339 274° West 265 305 10,000  Level Chicago Center
03:59PM 41.9411 -88.7383 267° West 279 321 10,000  Level Chicago Center
04:00PM 41.9472 -88.8678 274° West 290 334 10,000  Level Chicago Center
04:01PM 41.9042 -88.9486 234° Southwest 285 328 10,100  Climbing Chicago Center
04:02PM 41.8381 -88.9892 205° Southwest 265 305 10,100 -60 Level Chicago Center
04:03PM 41.7703 -89.0303 204° Southwest 270 311 10,000 -60 Descending Chicago Center
04:04PM 41.7019 -89.0717 204° Southwest 271 312 10,000  Level Chicago Center
04:05PM 41.6383 -89.1094 204° Southwest 256 295 10,000  Level Chicago Center
04:06PM 41.5417 -89.1692 205° Southwest 321 369 10,000  Level Chicago Center
04:07PM 41.4692 -89.2131 204° Southwest 323 372 10,000  Level Chicago Center
04:08PM 41.3869 -89.2611 204° Southwest 322 371 10,000  Level Chicago Center
04:09PM 41.3042 -89.3119 205° Southwest 326 375 10,000  Level Chicago Center
04:10PM 41.2153 -89.3803 210° Southwest 309 356 10,000 -480 Level Chicago Center
04:11PM 41.1603 -89.4364 218° Southwest 263 303 9,100 -1,020 Descending Chicago Center
04:12PM 41.1064 -89.4886 216° Southwest 246 283 8,000 -1,200 Descending Chicago Center
04:13PM 41.0558 -89.5408 218° Southwest 235 270 6,700 -1,200 Descending Chicago Center
04:14PM 41.0094 -89.5931 220° Southwest 224 258 5,600 -1,080 Descending Chicago Center
04:15PM 40.9617 -89.6447 219° Southwest 223 257 4,500 -780 Descending Chicago Center
04:17PM 40.9175 -89.6956 221° Southwest 215 247 4,000 -420 Descending Chicago Center
04:18PM 40.8647 -89.7572 221° Southwest 212 244 3,700 -600 Descending Chicago Center
04:19PM 40.8228 -89.8094 223° Southwest 212 244 2,800 -600 Descending Chicago Center
04:20PM 40.7892 -89.8558 226° Southwest 195 224 2,500 -180 Descending Chicago Center
04:21PM 40.7469 -89.8364 161° South 178 205 2,500 -120 Level Chicago Center
04:22PM 40.7217 -89.7972 130° Southeast 151 174 2,300 -240 Descending Chicago Center